sensor_id;sensor_type;location;lat;lon;timestamp;pressure;altitude;pressure_sealevel;temperature;humidity
7888;BME280;3989;48.810;9.208;2023-03-03T04:51:21;98998.63;;;0.99;100.00
7888;BME280;3989;48.810;9.208;2023-03-03T07:46:39;99136.94;;;3.49;100.00
7888;BME280;3989;48.810;9.208;2023-03-03T07:49:20;99170.81;;;3.85;100.00
7888;BME280;3989;48.810;9.208;2023-03-03T07:51:52;99169.88;;;3.86;100.00
7888;BME280;3989;48.810;9.208;2023-03-03T07:54:30;99173.34;;;3.87;100.00
7888;BME280;3989;48.810;9.208;2023-03-03T07:57:11;99179.28;;;4.00;100.00
7888;BME280;3989;48.810;9.208;2023-03-03T07:59:44;99151.91;;;4.01;100.00
7888;BME280;3989;48.810;9.208;2023-03-03T08:02:32;99174.59;;;4.24;100.00
7888;BME280;3989;48.810;9.208;2023-03-03T08:05:00;99175.81;;;4.41;100.00
7888;BME280;3989;48.810;9.208;2023-03-03T08:07:30;99177.06;;;4.46;100.00
7888;BME280;3989;48.810;9.208;2023-03-03T08:10:28;99181.72;;;4.54;100.00
7888;BME280;3989;48.810;9.208;2023-03-03T08:12:59;99184.94;;;4.57;100.00
7888;BME280;3989;48.810;9.208;2023-03-03T08:15:36;99155.63;;;4.40;100.00
7888;BME280;3989;48.810;9.208;2023-03-03T08:18:15;99182.41;;;4.56;100.00
7888;BME280;3989;48.810;9.208;2023-03-03T08:20:46;99193.50;;;4.50;100.00
7888;BME280;3989;48.810;9.208;2023-03-03T08:23:14;99001.25;;;3.31;100.00
7888;BME280;3989;48.810;9.208;2023-03-03T08:25:41;99193.97;;;4.34;100.00
7888;BME280;3989;48.810;9.208;2023-03-03T08:28:08;99190.22;;;4.37;100.00
7888;BME280;3989;48.810;9.208;2023-03-03T08:30:35;99155.34;;;4.43;100.00
7888;BME280;3989;48.810;9.208;2023-03-03T08:33:02;99177.75;;;4.69;100.00
7888;BME280;3989;48.810;9.208;2023-03-03T08:35:30;99188.59;;;4.66;98.69
7888;BME280;3989;48.810;9.208;2023-03-03T08:37:56;99179.16;;;4.73;100.00
7888;BME280;3989;48.810;9.208;2023-03-03T08:40:23;99172.72;;;4.66;99.41
7888;BME280;3989;48.810;9.208;2023-03-03T08:42:50;99179.44;;;4.70;99.64
7888;BME280;3989;48.810;9.208;2023-03-03T08:45:16;99144.78;;;4.43;100.00
7888;BME280;3989;48.810;9.208;2023-03-03T08:47:43;99175.59;;;4.53;100.00
7888;BME280;3989;48.810;9.208;2023-03-03T08:50:10;99142.94;;;4.34;98.69
7888;BME280;3989;48.810;9.208;2023-03-03T08:52:38;99182.47;;;4.65;100.00
7888;BME280;3989;48.810;9.208;2023-03-03T08:55:05;99163.22;;;4.54;99.98
7888;BME280;3989;48.810;9.208;2023-03-03T08:57:31;99028.34;;;3.74;100.00
7888;BME280;3989;48.810;9.208;2023-03-03T08:59:58;99154.44;;;4.53;98.35
7888;BME280;3989;48.810;9.208;2023-03-03T09:02:24;99131.16;;;4.38;99.05
7888;BME280;3989;48.810;9.208;2023-03-03T09:04:51;99175.84;;;4.71;98.06
7888;BME280;3989;48.810;9.208;2023-03-03T09:07:18;99196.28;;;5.09;96.50
7888;BME280;3989;48.810;9.208;2023-03-03T09:09:46;99126.56;;;4.70;93.31
7888;BME280;3989;48.810;9.208;2023-03-03T09:12:16;99144.69;;;4.74;93.19
7888;BME280;3989;48.810;9.208;2023-03-03T09:14:43;99201.84;;;5.06;93.36
7888;BME280;3989;48.810;9.208;2023-03-03T09:17:23;99166.53;;;4.76;96.80
7888;BME280;3989;48.810;9.208;2023-03-03T09:19:50;99182.78;;;4.72;96.48
7888;BME280;3989;48.810;9.208;2023-03-03T09:22:19;99035.75;;;3.80;99.17
7888;BME280;3989;48.810;9.208;2023-03-03T09:24:50;99196.72;;;4.74;100.00
7888;BME280;3989;48.810;9.208;2023-03-03T09:27:25;99225.59;;;4.87;100.00
7888;BME280;3989;48.810;9.208;2023-03-03T09:29:52;99117.88;;;4.28;100.00
7888;BME280;3989;48.810;9.208;2023-03-03T09:32:30;99173.19;;;5.11;99.44
7888;BME280;3989;48.810;9.208;2023-03-03T09:34:59;99217.88;;;5.63;91.40
7888;BME280;3989;48.810;9.208;2023-03-03T09:37:28;99219.22;;;5.98;86.42
7888;BME280;3989;48.810;9.208;2023-03-03T09:39:58;99054.00;;;5.22;83.21
7888;BME280;3989;48.810;9.208;2023-03-03T09:42:36;99180.44;;;6.16;79.45
7888;BME280;3989;48.810;9.208;2023-03-03T09:45:25;99211.78;;;6.49;82.18
7888;BME280;3989;48.810;9.208;2023-03-03T09:48:18;99211.16;;;6.74;75.68
7888;BME280;3989;48.810;9.208;2023-03-03T09:50:58;99196.56;;;6.98;76.37
7888;BME280;3989;48.810;9.208;2023-03-03T09:53:41;99213.69;;;7.30;70.07
7888;BME280;3989;48.810;9.208;2023-03-03T09:56:15;99182.25;;;7.08;69.28
7888;BME280;3989;48.810;9.208;2023-03-03T09:59:00;99201.63;;;7.18;69.64
7888;BME280;3989;48.810;9.208;2023-03-03T10:01:42;99207.59;;;7.30;69.61
7888;BME280;3989;48.810;9.208;2023-03-03T10:04:37;99211.03;;;7.58;66.76
7888;BME280;3989;48.810;9.208;2023-03-03T10:07:19;99213.19;;;7.72;64.57
7888;BME280;3989;48.810;9.208;2023-03-03T10:10:02;99107.75;;;7.19;65.61
7888;BME280;3989;48.810;9.208;2023-03-03T10:12:36;99210.16;;;8.02;65.09
7888;BME280;3989;48.810;9.208;2023-03-03T10:15:24;99204.53;;;8.05;62.16
7888;BME280;3989;48.810;9.208;2023-03-03T10:18:12;99198.63;;;7.93;62.00
7888;BME280;3989;48.810;9.208;2023-03-03T10:20:46;99180.47;;;7.89;62.25
7888;BME280;3989;48.810;9.208;2023-03-03T10:23:20;99119.53;;;7.52;61.25
7888;BME280;3989;48.810;9.208;2023-03-03T10:25:54;99215.25;;;7.96;62.34
7888;BME280;3989;48.810;9.208;2023-03-03T10:31:29;99219.13;;;7.83;64.07
7888;BME280;3989;48.810;9.208;2023-03-03T10:34:06;99218.59;;;8.15;62.58
7888;BME280;3989;48.810;9.208;2023-03-03T10:36:45;99215.13;;;8.32;61.10
7888;BME280;3989;48.810;9.208;2023-03-03T10:39:31;99211.22;;;8.27;60.12
7888;BME280;3989;48.810;9.208;2023-03-03T10:42:09;99212.44;;;8.15;61.77
7888;BME280;3989;48.810;9.208;2023-03-03T10:45:06;99152.03;;;7.81;65.26
7888;BME280;3989;48.810;9.208;2023-03-03T10:47:50;99169.94;;;7.97;62.69
7888;BME280;3989;48.810;9.208;2023-03-03T10:50:26;99207.19;;;8.05;63.44
7888;BME280;3989;48.810;9.208;2023-03-03T10:53:18;99206.97;;;7.81;65.40
7888;BME280;3989;48.810;9.208;2023-03-03T10:55:53;99204.59;;;7.60;69.29
7888;BME280;3989;48.810;9.208;2023-03-03T10:58:45;99205.66;;;7.67;69.86
7888;BME280;3989;48.810;9.208;2023-03-03T11:01:21;99153.81;;;7.46;67.91
7888;BME280;3989;48.810;9.208;2023-03-03T11:04:11;99212.00;;;7.84;66.99
7888;BME280;3989;48.810;9.208;2023-03-03T11:06:45;99203.47;;;7.80;65.57
7888;BME280;3989;48.810;9.208;2023-03-03T11:09:29;99176.47;;;7.85;65.38
7888;BME280;3989;48.810;9.208;2023-03-03T11:12:06;99207.50;;;8.20;62.00
7888;BME280;3989;48.810;9.208;2023-03-03T11:14:39;99203.63;;;8.50;60.77
7888;BME280;3989;48.810;9.208;2023-03-03T11:17:15;99204.25;;;8.69;58.13
7888;BME280;3989;48.810;9.208;2023-03-03T11:19:54;99205.69;;;8.89;58.00
7888;BME280;3989;48.810;9.208;2023-03-03T11:22:33;99204.47;;;9.10;56.18
7888;BME280;3989;48.810;9.208;2023-03-03T11:25:14;99218.25;;;9.05;56.21
7888;BME280;3989;48.810;9.208;2023-03-03T11:28:06;99152.59;;;8.80;55.00
7888;BME280;3989;48.810;9.208;2023-03-03T11:30:49;99202.41;;;9.29;54.78
7888;BME280;3989;48.810;9.208;2023-03-03T11:33:26;99216.06;;;9.34;54.26
7888;BME280;3989;48.810;9.208;2023-03-03T11:36:09;99217.75;;;9.43;54.09
7888;BME280;3989;48.810;9.208;2023-03-03T11:38:47;99198.34;;;9.59;53.28
7888;BME280;3989;48.810;9.208;2023-03-03T11:41:25;99206.22;;;9.77;52.16
7888;BME280;3989;48.810;9.208;2023-03-03T11:43:57;99199.75;;;9.87;51.83
7888;BME280;3989;48.810;9.208;2023-03-03T11:46:28;99197.09;;;9.87;51.10
7888;BME280;3989;48.810;9.208;2023-03-03T11:49:02;99178.25;;;9.81;51.27
7888;BME280;3989;48.810;9.208;2023-03-03T11:51:40;99201.25;;;10.06;51.03
7888;BME280;3989;48.810;9.208;2023-03-03T11:54:14;99106.94;;;9.83;50.65
7888;BME280;3989;48.810;9.208;2023-03-03T11:56:45;99178.47;;;10.52;50.89
7888;BME280;3989;48.810;9.208;2023-03-03T11:59:36;99174.13;;;10.35;49.59
7888;BME280;3989;48.810;9.208;2023-03-03T12:02:22;99154.81;;;10.33;49.39
7888;BME280;3989;48.810;9.208;2023-03-03T12:04:58;99158.75;;;10.61;49.06
7888;BME280;3989;48.810;9.208;2023-03-03T12:07:31;99085.63;;;10.23;49.07
7888;BME280;3989;48.810;9.208;2023-03-03T12:10:13;99055.56;;;10.37;48.69
7888;BME280;3989;48.810;9.208;2023-03-03T12:12:44;99155.16;;;10.93;47.78
7888;BME280;3989;48.810;9.208;2023-03-03T12:15:21;99114.56;;;10.50;48.34
7888;BME280;3989;48.810;9.208;2023-03-03T12:18:15;99168.59;;;10.61;48.64
7888;BME280;3989;48.810;9.208;2023-03-03T12:20:52;99170.63;;;10.26;49.30
7888;BME280;3989;48.810;9.208;2023-03-03T12:23:38;99166.22;;;9.77;50.37
7888;BME280;3989;48.810;9.208;2023-03-03T12:26:13;99175.19;;;9.52;50.93
7888;BME280;3989;48.810;9.208;2023-03-03T12:28:45;99154.09;;;9.24;51.40
7888;BME280;3989;48.810;9.208;2023-03-03T12:31:28;99166.38;;;9.09;52.24
7888;BME280;3989;48.810;9.208;2023-03-03T12:34:04;99176.22;;;9.17;52.98
7888;BME280;3989;48.810;9.208;2023-03-03T12:36:54;99154.97;;;9.33;52.59
7888;BME280;3989;48.810;9.208;2023-03-03T12:39:34;99158.63;;;9.32;52.03
7888;BME280;3989;48.810;9.208;2023-03-03T12:42:06;98970.84;;;8.12;52.60
7888;BME280;3989;48.810;9.208;2023-03-03T12:44:40;99155.19;;;9.06;52.56
7888;BME280;3989;48.810;9.208;2023-03-03T12:47:14;99123.84;;;8.83;53.33
7888;BME280;3989;48.810;9.208;2023-03-03T12:49:50;99150.72;;;9.06;53.08
7888;BME280;3989;48.810;9.208;2023-03-03T12:52:30;99082.47;;;8.63;53.27
7888;BME280;3989;48.810;9.208;2023-03-03T12:55:04;99145.72;;;9.11;53.60
7888;BME280;3989;48.810;9.208;2023-03-03T12:57:40;99120.44;;;9.07;53.28
7888;BME280;3989;48.810;9.208;2023-03-03T13:00:30;99144.09;;;9.18;53.29
7888;BME280;3989;48.810;9.208;2023-03-03T13:03:04;99135.59;;;9.15;53.24
7888;BME280;3989;48.810;9.208;2023-03-03T13:05:44;99131.63;;;9.19;53.29
7888;BME280;3989;48.810;9.208;2023-03-03T13:08:25;99115.13;;;9.07;53.47
7888;BME280;3989;48.810;9.208;2023-03-03T13:11:03;98962.59;;;8.23;53.18
7888;BME280;3989;48.810;9.208;2023-03-03T13:13:38;99146.50;;;9.37;53.82
7888;BME280;3989;48.810;9.208;2023-03-03T13:16:10;99010.63;;;8.55;53.64
7888;BME280;3989;48.810;9.208;2023-03-03T13:18:47;99060.66;;;8.93;52.93
7888;BME280;3989;48.810;9.208;2023-03-03T13:21:19;99094.84;;;9.14;52.73
7888;BME280;3989;48.810;9.208;2023-03-03T13:23:53;99142.19;;;9.44;52.62
7888;BME280;3989;48.810;9.208;2023-03-03T13:26:27;99070.09;;;8.80;52.94
7888;BME280;3989;48.810;9.208;2023-03-03T13:29:03;99147.78;;;9.17;53.00
7888;BME280;3989;48.810;9.208;2023-03-03T13:31:37;99139.09;;;9.15;52.96
7888;BME280;3989;48.810;9.208;2023-03-03T13:34:07;99137.13;;;9.17;52.92
7888;BME280;3989;48.810;9.208;2023-03-03T13:36:38;99107.13;;;9.07;53.20
7888;BME280;3989;48.810;9.208;2023-03-03T13:39:17;99134.00;;;9.30;52.82
7888;BME280;3989;48.810;9.208;2023-03-03T13:41:48;99136.34;;;9.33;52.90
7888;BME280;3989;48.810;9.208;2023-03-03T13:44:24;99033.66;;;8.80;52.74
7888;BME280;3989;48.810;9.208;2023-03-03T13:46:59;99122.38;;;9.39;52.16
7888;BME280;3989;48.810;9.208;2023-03-03T13:49:39;99076.69;;;9.10;52.30
7888;BME280;3989;48.810;9.208;2023-03-03T13:52:10;99042.16;;;8.84;52.27
7888;BME280;3989;48.810;9.208;2023-03-03T13:54:51;99066.44;;;8.89;52.65
7888;BME280;3989;48.810;9.208;2023-03-03T13:57:40;99118.88;;;9.38;52.75
7888;BME280;3989;48.810;9.208;2023-03-03T14:00:25;99126.06;;;9.46;52.38
7888;BME280;3989;48.810;9.208;2023-03-03T14:03:06;99099.53;;;9.28;52.50
7888;BME280;3989;48.810;9.208;2023-03-03T14:05:36;99112.22;;;9.42;52.44
7888;BME280;3989;48.810;9.208;2023-03-03T14:08:09;99076.88;;;9.16;52.62
7888;BME280;3989;48.810;9.208;2023-03-03T14:10:43;99116.53;;;9.43;52.77
7888;BME280;3989;48.810;9.208;2023-03-03T14:13:18;99062.91;;;9.22;52.27
7888;BME280;3989;48.810;9.208;2023-03-03T14:15:51;99065.41;;;9.24;52.39
7888;BME280;3989;48.810;9.208;2023-03-03T14:18:24;99047.22;;;9.11;52.05
7888;BME280;3989;48.810;9.208;2023-03-03T14:20:55;99070.25;;;9.36;52.24
7888;BME280;3989;48.810;9.208;2023-03-03T14:23:26;98976.44;;;8.76;52.26
7888;BME280;3989;48.810;9.208;2023-03-03T14:25:59;99058.91;;;9.26;52.21
7888;BME280;3989;48.810;9.208;2023-03-03T14:28:37;99104.41;;;9.57;52.17
7888;BME280;3989;48.810;9.208;2023-03-03T14:31:14;99096.25;;;9.50;52.65
7888;BME280;3989;48.810;9.208;2023-03-03T14:33:44;99074.75;;;9.44;51.91
7888;BME280;3989;48.810;9.208;2023-03-03T14:36:12;99092.75;;;9.58;52.00
7888;BME280;3989;48.810;9.208;2023-03-03T14:38:46;99097.59;;;9.63;52.56
7888;BME280;3989;48.810;9.208;2023-03-03T14:41:20;99024.63;;;9.31;52.42
7888;BME280;3989;48.810;9.208;2023-03-03T14:43:58;99097.28;;;9.82;52.11
7888;BME280;3989;48.810;9.208;2023-03-03T14:46:36;99096.25;;;9.83;51.87
7888;BME280;3989;48.810;9.208;2023-03-03T14:49:06;99068.28;;;9.63;51.90
7888;BME280;3989;48.810;9.208;2023-03-03T14:51:41;99097.44;;;9.80;51.89
7888;BME280;3989;48.810;9.208;2023-03-03T14:54:15;99103.41;;;9.66;51.68
7888;BME280;3989;48.810;9.208;2023-03-03T14:57:01;99069.94;;;9.47;52.37
7888;BME280;3989;48.810;9.208;2023-03-03T14:59:29;99091.25;;;9.64;52.51
7888;BME280;3989;48.810;9.208;2023-03-03T15:02:02;99044.75;;;9.34;52.28
7888;BME280;3989;48.810;9.208;2023-03-03T15:04:31;99101.09;;;9.63;52.20
7888;BME280;3989;48.810;9.208;2023-03-03T15:06:57;99064.44;;;9.49;52.31
7888;BME280;3989;48.810;9.208;2023-03-03T15:09:28;99066.28;;;9.57;52.37
7888;BME280;3989;48.810;9.208;2023-03-03T15:11:59;99098.94;;;9.67;52.48
7888;BME280;3989;48.810;9.208;2023-03-03T15:14:31;99038.28;;;9.36;52.37
7888;BME280;3989;48.810;9.208;2023-03-03T15:17:19;99064.94;;;9.53;52.74
7888;BME280;3989;48.810;9.208;2023-03-03T15:19:59;99084.09;;;9.64;52.67
7888;BME280;3989;48.810;9.208;2023-03-03T15:22:39;99038.63;;;9.41;52.73
7888;BME280;3989;48.810;9.208;2023-03-03T15:25:11;99039.28;;;9.43;52.88
7888;BME280;3989;48.810;9.208;2023-03-03T15:27:43;99069.47;;;9.68;52.74
7888;BME280;3989;48.810;9.208;2023-03-03T15:30:21;98943.22;;;8.88;52.73
7888;BME280;3989;48.810;9.208;2023-03-03T15:32:57;99072.28;;;9.67;52.84
7888;BME280;3989;48.810;9.208;2023-03-03T15:35:46;98999.66;;;9.24;52.55
7888;BME280;3989;48.810;9.208;2023-03-03T15:38:30;98930.53;;;8.74;52.42
7888;BME280;3989;48.810;9.208;2023-03-03T15:41:07;99080.78;;;9.62;52.67
7888;BME280;3989;48.810;9.208;2023-03-03T15:43:42;99066.59;;;9.54;52.85
7888;BME280;3989;48.810;9.208;2023-03-03T15:46:20;99029.81;;;9.33;53.08
7888;BME280;3989;48.810;9.208;2023-03-03T15:48:59;99076.59;;;9.52;53.04
7888;BME280;3989;48.810;9.208;2023-03-03T15:51:43;99079.94;;;9.45;53.09
7888;BME280;3989;48.810;9.208;2023-03-03T15:54:24;99087.41;;;9.42;53.36
7888;BME280;3989;48.810;9.208;2023-03-03T15:56:57;98865.69;;;8.09;53.36
7888;BME280;3989;48.810;9.208;2023-03-03T15:59:57;99067.06;;;9.25;53.59
7888;BME280;3989;48.810;9.208;2023-03-03T16:02:41;99076.41;;;9.29;54.09
7888;BME280;3989;48.810;9.208;2023-03-03T16:05:14;99084.88;;;9.24;54.18
7888;BME280;3989;48.810;9.208;2023-03-03T16:07:47;99065.34;;;9.00;54.36
7888;BME280;3989;48.810;9.208;2023-03-03T16:10:21;99090.00;;;9.18;54.41
7888;BME280;3989;48.810;9.208;2023-03-03T16:12:54;99086.34;;;9.11;54.75
7888;BME280;3989;48.810;9.208;2023-03-03T16:15:37;99073.97;;;9.02;54.81
7888;BME280;3989;48.810;9.208;2023-03-03T16:18:14;99085.00;;;9.07;55.19
7888;BME280;3989;48.810;9.208;2023-03-03T16:20:51;99100.78;;;9.00;55.28
7888;BME280;3989;48.810;9.208;2023-03-03T16:23:30;99088.91;;;8.86;56.17
7888;BME280;3989;48.810;9.208;2023-03-03T16:26:05;99092.38;;;9.29;55.88
7888;BME280;3989;48.810;9.208;2023-03-03T16:29:00;99073.78;;;10.26;52.34
7888;BME280;3989;48.810;9.208;2023-03-03T16:31:35;99101.53;;;11.11;50.07
7888;BME280;3989;48.810;9.208;2023-03-03T16:34:09;99095.78;;;11.52;48.99
7888;BME280;3989;48.810;9.208;2023-03-03T16:36:51;99110.41;;;11.65;48.42
7888;BME280;3989;48.810;9.208;2023-03-03T16:39:23;99090.94;;;11.48;47.96
7888;BME280;3989;48.810;9.208;2023-03-03T16:41:59;99044.91;;;10.76;48.52
7888;BME280;3989;48.810;9.208;2023-03-03T16:44:35;99107.25;;;10.52;49.76
7888;BME280;3989;48.810;9.208;2023-03-03T16:47:27;99118.09;;;9.78;51.57
7888;BME280;3989;48.810;9.208;2023-03-03T16:50:08;99110.78;;;8.98;54.14
7888;BME280;3989;48.810;9.208;2023-03-03T16:52:42;99083.75;;;8.25;55.95
7888;BME280;3989;48.810;9.208;2023-03-03T16:55:14;99151.38;;;8.23;58.00
7888;BME280;3989;48.810;9.208;2023-03-03T16:57:50;99132.19;;;7.93;60.62
7888;BME280;3989;48.810;9.208;2023-03-03T17:00:19;99140.94;;;7.68;63.33
7888;BME280;3989;48.810;9.208;2023-03-03T17:03:12;99142.66;;;7.42;66.59
7888;BME280;3989;48.810;9.208;2023-03-03T17:05:48;99146.72;;;7.19;69.16
7888;BME280;3989;48.810;9.208;2023-03-03T17:08:31;99147.38;;;7.03;72.52
7888;BME280;3989;48.810;9.208;2023-03-03T17:11:06;99066.00;;;6.40;74.84
7888;BME280;3989;48.810;9.208;2023-03-03T17:13:52;99149.59;;;6.71;76.59
7888;BME280;3989;48.810;9.208;2023-03-03T17:16:29;99078.78;;;6.07;82.62
7888;BME280;3989;48.810;9.208;2023-03-03T17:19:12;99151.34;;;6.43;84.05
7888;BME280;3989;48.810;9.208;2023-03-03T17:21:58;99138.34;;;6.03;87.60
7888;BME280;3989;48.810;9.208;2023-03-03T17:24:37;99166.91;;;6.09;89.82
7888;BME280;3989;48.810;9.208;2023-03-03T17:27:13;99165.41;;;5.97;93.71
7888;BME280;3989;48.810;9.208;2023-03-03T17:29:59;99159.91;;;5.79;94.71
7888;BME280;3989;48.810;9.208;2023-03-03T17:32:37;99125.34;;;5.33;98.32
7888;BME280;3989;48.810;9.208;2023-03-03T17:35:16;99178.84;;;5.56;99.36
7888;BME280;3989;48.810;9.208;2023-03-03T17:37:50;99171.03;;;5.35;100.00
7888;BME280;3989;48.810;9.208;2023-03-03T17:40:40;99184.53;;;5.32;100.00
7888;BME280;3989;48.810;9.208;2023-03-03T17:43:12;99105.56;;;4.68;100.00
7888;BME280;3989;48.810;9.208;2023-03-03T17:45:43;99193.78;;;5.07;100.00
7888;BME280;3989;48.810;9.208;2023-03-03T17:51:38;99174.53;;;4.65;100.00
7888;BME280;3989;48.810;9.208;2023-03-03T17:54:24;99199.75;;;4.69;100.00
7888;BME280;3989;48.810;9.208;2023-03-03T17:57:02;99196.81;;;4.42;100.00
7888;BME280;3989;48.810;9.208;2023-03-03T18:00:00;99155.41;;;4.22;100.00
7888;BME280;3989;48.810;9.208;2023-03-03T18:02:45;99065.94;;;3.66;100.00
7888;BME280;3989;48.810;9.208;2023-03-03T18:05:36;99203.91;;;4.42;100.00
7888;BME280;3989;48.810;9.208;2023-03-03T18:08:22;99213.59;;;4.52;100.00
7888;BME280;3989;48.810;9.208;2023-03-03T18:11:18;99124.69;;;4.00;100.00
7888;BME280;3989;48.810;9.208;2023-03-03T18:14:01;99197.78;;;4.41;100.00
7888;BME280;3989;48.810;9.208;2023-03-03T18:16:45;98928.75;;;2.52;100.00
7888;BME280;3989;48.810;9.208;2023-03-03T18:19:32;99224.72;;;4.35;100.00
7888;BME280;3989;48.810;9.208;2023-03-03T18:22:11;99225.63;;;4.24;100.00
7888;BME280;3989;48.810;9.208;2023-03-03T18:24:53;99225.28;;;4.18;100.00
7888;BME280;3989;48.810;9.208;2023-03-03T18:27:32;99207.75;;;3.96;100.00
7888;BME280;3989;48.810;9.208;2023-03-03T18:30:26;99223.94;;;4.03;100.00
7888;BME280;3989;48.810;9.208;2023-03-03T18:33:06;99176.28;;;3.72;100.00
7888;BME280;3989;48.810;9.208;2023-03-03T18:35:36;99233.41;;;4.05;100.00
7888;BME280;3989;48.810;9.208;2023-03-03T18:38:35;99232.44;;;4.06;100.00
7888;BME280;3989;48.810;9.208;2023-03-03T18:41:08;99210.69;;;3.82;100.00
7888;BME280;3989;48.810;9.208;2023-03-03T18:43:53;99226.38;;;4.15;100.00
7888;BME280;3989;48.810;9.208;2023-03-03T18:46:49;99236.56;;;4.41;100.00
7888;BME280;3989;48.810;9.208;2023-03-03T18:49:17;99226.09;;;4.30;100.00
7888;BME280;3989;48.810;9.208;2023-03-03T18:51:51;99244.38;;;4.63;100.00
7888;BME280;3989;48.810;9.208;2023-03-03T18:54:38;99249.91;;;4.60;100.00
7888;BME280;3989;48.810;9.208;2023-03-03T18:57:17;99245.41;;;4.71;100.00
7888;BME280;3989;48.810;9.208;2023-03-03T18:59:52;99252.66;;;4.79;100.00
7888;BME280;3989;48.810;9.208;2023-03-03T19:02:28;99254.41;;;4.90;100.00
7888;BME280;3989;48.810;9.208;2023-03-03T19:05:05;99249.44;;;4.96;100.00
7888;BME280;3989;48.810;9.208;2023-03-03T19:07:47;99261.75;;;5.07;100.00
7888;BME280;3989;48.810;9.208;2023-03-03T19:10:50;99266.88;;;5.08;100.00
7888;BME280;3989;48.810;9.208;2023-03-03T19:13:45;99218.19;;;4.81;100.00
7888;BME280;3989;48.810;9.208;2023-03-03T19:16:42;99261.28;;;5.02;100.00
7888;BME280;3989;48.810;9.208;2023-03-03T19:19:11;99184.88;;;4.48;100.00
7888;BME280;3989;48.810;9.208;2023-03-03T19:21:39;99225.28;;;4.59;100.00
7888;BME280;3989;48.810;9.208;2023-03-03T19:24:26;99261.34;;;4.81;100.00
7888;BME280;3989;48.810;9.208;2023-03-03T19:27:07;99280.53;;;4.62;100.00
7888;BME280;3989;48.810;9.208;2023-03-03T19:32:41;99274.31;;;4.11;100.00
7888;BME280;3989;48.810;9.208;2023-03-03T19:35:23;99279.66;;;3.89;100.00
7888;BME280;3989;48.810;9.208;2023-03-03T19:38:00;99284.50;;;3.84;100.00
7888;BME280;3989;48.810;9.208;2023-03-03T19:40:33;99285.94;;;3.77;100.00
7888;BME280;3989;48.810;9.208;2023-03-03T19:43:10;99281.41;;;3.67;100.00
7888;BME280;3989;48.810;9.208;2023-03-03T19:45:51;99281.19;;;3.59;100.00
7888;BME280;3989;48.810;9.208;2023-03-03T19:48:24;99278.69;;;3.47;100.00
7888;BME280;3989;48.810;9.208;2023-03-03T19:50:59;99290.09;;;3.47;100.00
7888;BME280;3989;48.810;9.208;2023-03-03T19:53:34;99292.50;;;3.39;100.00
7888;BME280;3989;48.810;9.208;2023-03-03T19:56:16;99281.09;;;3.28;100.00
7888;BME280;3989;48.810;9.208;2023-03-03T19:58:51;99267.78;;;3.18;100.00
7888;BME280;3989;48.810;9.208;2023-03-03T20:01:26;99284.13;;;3.23;100.00
7888;BME280;3989;48.810;9.208;2023-03-03T20:04:07;99290.59;;;3.19;100.00
7888;BME280;3989;48.810;9.208;2023-03-03T20:06:54;99000.78;;;1.40;100.00
7888;BME280;3989;48.810;9.208;2023-03-03T20:09:28;99076.81;;;1.89;100.00
7888;BME280;3989;48.810;9.208;2023-03-03T20:12:13;99266.09;;;2.95;100.00
7888;BME280;3989;48.810;9.208;2023-03-03T20:14:46;99275.00;;;2.94;100.00
7888;BME280;3989;48.810;9.208;2023-03-03T20:17:45;99268.28;;;2.90;100.00
7888;BME280;3989;48.810;9.208;2023-03-03T20:20:31;99292.13;;;2.99;100.00
7888;BME280;3989;48.810;9.208;2023-03-03T20:23:08;99240.94;;;2.57;100.00
7888;BME280;3989;48.810;9.208;2023-03-03T20:25:45;99294.47;;;2.69;100.00
7888;BME280;3989;48.810;9.208;2023-03-03T20:28:28;99274.81;;;2.51;100.00
7888;BME280;3989;48.810;9.208;2023-03-03T20:31:04;99258.09;;;2.28;100.00
7888;BME280;3989;48.810;9.208;2023-03-03T20:33:47;99249.69;;;2.23;100.00
7888;BME280;3989;48.810;9.208;2023-03-03T20:36:24;99211.75;;;1.91;100.00
7888;BME280;3989;48.810;9.208;2023-03-03T20:39:01;99164.16;;;1.59;100.00
7888;BME280;3989;48.810;9.208;2023-03-03T20:44:32;99266.53;;;2.09;100.00
7888;BME280;3989;48.810;9.208;2023-03-03T20:47:07;99237.03;;;1.93;100.00
7888;BME280;3989;48.810;9.208;2023-03-03T20:49:52;99165.28;;;1.44;100.00
7888;BME280;3989;48.810;9.208;2023-03-03T20:52:30;99280.19;;;2.15;100.00
7888;BME280;3989;48.810;9.208;2023-03-03T20:55:09;99330.44;;;2.35;100.00
7888;BME280;3989;48.810;9.208;2023-03-03T20:57:43;99150.75;;;1.27;100.00
7888;BME280;3989;48.810;9.208;2023-03-03T21:00:20;99335.09;;;2.32;100.00
7888;BME280;3989;48.810;9.208;2023-03-03T21:02:56;99205.22;;;1.62;100.00
7888;BME280;3989;48.810;9.208;2023-03-03T21:05:27;99212.97;;;1.63;100.00
7888;BME280;3989;48.810;9.208;2023-03-03T21:07:58;99330.75;;;2.31;100.00
7888;BME280;3989;48.810;9.208;2023-03-03T21:10:28;99269.47;;;1.94;100.00
7888;BME280;3989;48.810;9.208;2023-03-03T21:12:57;99246.34;;;1.86;100.00
7888;BME280;3989;48.810;9.208;2023-03-03T21:15:27;99234.81;;;1.76;100.00
7888;BME280;3989;48.810;9.208;2023-03-03T21:17:58;99340.97;;;2.35;100.00
7888;BME280;3989;48.810;9.208;2023-03-03T21:20:29;99291.28;;;2.07;100.00
7888;BME280;3989;48.810;9.208;2023-03-03T21:22:57;99194.94;;;1.46;100.00
7888;BME280;3989;48.810;9.208;2023-03-03T21:25:44;99336.50;;;2.25;100.00
7888;BME280;3989;48.810;9.208;2023-03-03T21:28:12;99333.47;;;2.18;100.00
7888;BME280;3989;48.810;9.208;2023-03-03T21:31:04;99157.84;;;1.14;100.00
7888;BME280;3989;48.810;9.208;2023-03-03T21:36:45;99337.81;;;2.30;100.00
7888;BME280;3989;48.810;9.208;2023-03-03T21:39:24;99308.31;;;2.14;100.00
7888;BME280;3989;48.810;9.208;2023-03-03T21:41:57;99340.63;;;2.40;100.00
7888;BME280;3989;48.810;9.208;2023-03-03T21:44:28;99313.63;;;2.25;100.00
7888;BME280;3989;48.810;9.208;2023-03-03T21:46:56;99211.63;;;1.57;100.00
7888;BME280;3989;48.810;9.208;2023-03-03T21:49:23;99236.16;;;1.58;100.00
7888;BME280;3989;48.810;9.208;2023-03-03T21:51:51;99341.69;;;2.13;100.00
7888;BME280;3989;48.810;9.208;2023-03-03T21:54:18;99337.94;;;2.05;100.00
7888;BME280;3989;48.810;9.208;2023-03-03T21:56:45;99206.22;;;1.12;100.00
7888;BME280;3989;48.810;9.208;2023-03-03T21:59:12;99335.81;;;1.86;100.00
7888;BME280;3989;48.810;9.208;2023-03-03T22:01:39;99245.34;;;1.16;100.00
7888;BME280;3989;48.810;9.208;2023-03-03T22:04:06;99243.72;;;1.14;100.00
7888;BME280;3989;48.810;9.208;2023-03-03T22:06:34;99248.91;;;1.15;100.00
7888;BME280;3989;48.810;9.208;2023-03-03T22:09:04;99309.09;;;1.43;100.00
7888;BME280;3989;48.810;9.208;2023-03-03T22:11:31;99336.53;;;1.65;100.00
7888;BME280;3989;48.810;9.208;2023-03-03T22:13:58;99341.88;;;1.63;100.00
7888;BME280;3989;48.810;9.208;2023-03-03T22:16:25;99263.41;;;1.08;100.00
7888;BME280;3989;48.810;9.208;2023-03-03T22:18:52;99340.22;;;1.49;100.00